sensor_id;sensor_type;location;lat;lon;timestamp;pressure;altitude;pressure_sealevel;temperature;humidity
61488;BME280;47351;53.326;-6.298;2023-04-08T00:00:07;101916.60;;;7.34;73.26
61488;BME280;47351;53.326;-6.298;2023-04-08T00:03:19;101916.20;;;7.34;73.41
61488;BME280;47351;53.326;-6.298;2023-04-08T00:06:15;101913.92;;;7.34;73.46
61488;BME280;47351;53.326;-6.298;2023-04-08T00:09:26;101917.05;;;7.35;73.67
61488;BME280;47351;53.326;-6.298;2023-04-08T00:12:38;101919.54;;;7.37;74.07
61488;BME280;47351;53.326;-6.298;2023-04-08T00:15:49;101916.96;;;7.41;74.36
61488;BME280;47351;53.326;-6.298;2023-04-08T00:19:00;101919.86;;;7.46;74.54
61488;BME280;47351;53.326;-6.298;2023-04-08T00:22:11;101921.33;;;7.50;74.67
61488;BME280;47351;53.326;-6.298;2023-04-08T00:25:22;101920.77;;;7.53;74.96
61488;BME280;47351;53.326;-6.298;2023-04-08T00:28:34;101917.64;;;7.57;75.20
61488;BME280;47351;53.326;-6.298;2023-04-08T00:31:27;101917.98;;;7.60;75.21
61488;BME280;47351;53.326;-6.298;2023-04-08T00:34:38;101911.80;;;7.59;75.09
61488;BME280;47351;53.326;-6.298;2023-04-08T00:37:49;101911.83;;;7.56;74.99
61488;BME280;47351;53.326;-6.298;2023-04-08T00:41:00;101916.89;;;7.53;75.07
61488;BME280;47351;53.326;-6.298;2023-04-08T00:44:11;101916.30;;;7.49;75.13
61488;BME280;47351;53.326;-6.298;2023-04-08T00:47:22;101915.58;;;7.43;75.28
61488;BME280;47351;53.326;-6.298;2023-04-08T00:50:33;101917.33;;;7.38;75.56
61488;BME280;47351;53.326;-6.298;2023-04-08T00:53:44;101918.35;;;7.34;75.85
61488;BME280;47351;53.326;-6.298;2023-04-08T00:56:47;101919.86;;;7.30;76.12
61488;BME280;47351;53.326;-6.298;2023-04-08T00:59:52;101921.00;;;7.27;76.41
61488;BME280;47351;53.326;-6.298;2023-04-08T01:03:04;101917.59;;;7.25;76.79
61488;BME280;47351;53.326;-6.298;2023-04-08T01:06:19;101911.48;;;7.23;76.87
61488;BME280;47351;53.326;-6.298;2023-04-08T01:09:27;101909.02;;;7.20;76.82
61488;BME280;47351;53.326;-6.298;2023-04-08T01:12:29;101909.13;;;7.18;76.96
61488;BME280;47351;53.326;-6.298;2023-04-08T01:15:41;101911.08;;;7.19;77.14
61488;BME280;47351;53.326;-6.298;2023-04-08T01:18:47;101910.00;;;7.19;77.26
61488;BME280;47351;53.326;-6.298;2023-04-08T01:22:00;101907.07;;;7.20;77.39
61488;BME280;47351;53.326;-6.298;2023-04-08T01:25:14;101903.89;;;7.23;77.55
61488;BME280;47351;53.326;-6.298;2023-04-08T01:28:26;101904.34;;;7.24;77.65
61488;BME280;47351;53.326;-6.298;2023-04-08T01:31:37;101907.27;;;7.25;77.78
61488;BME280;47351;53.326;-6.298;2023-04-08T01:34:34;101907.64;;;7.27;78.01
61488;BME280;47351;53.326;-6.298;2023-04-08T01:37:39;101906.81;;;7.29;78.20
61488;BME280;47351;53.326;-6.298;2023-04-08T01:40:50;101905.82;;;7.30;78.24
61488;BME280;47351;53.326;-6.298;2023-04-08T01:44:03;101905.70;;;7.32;78.44
61488;BME280;47351;53.326;-6.298;2023-04-08T01:47:07;101904.01;;;7.33;78.36
61488;BME280;47351;53.326;-6.298;2023-04-08T01:50:20;101901.56;;;7.35;78.48
61488;BME280;47351;53.326;-6.298;2023-04-08T01:53:32;101903.89;;;7.40;78.64
61488;BME280;47351;53.326;-6.298;2023-04-08T01:56:43;101900.74;;;7.45;78.58
61488;BME280;47351;53.326;-6.298;2023-04-08T01:59:41;101900.60;;;7.49;78.52
61488;BME280;47351;53.326;-6.298;2023-04-08T02:02:53;101898.52;;;7.53;78.50
61488;BME280;47351;53.326;-6.298;2023-04-08T02:06:05;101901.46;;;7.59;78.79
61488;BME280;47351;53.326;-6.298;2023-04-08T02:09:10;101897.92;;;7.67;78.89
61488;BME280;47351;53.326;-6.298;2023-04-08T02:12:22;101904.38;;;7.74;78.64
61488;BME280;47351;53.326;-6.298;2023-04-08T02:15:19;101903.52;;;7.78;78.34
61488;BME280;47351;53.326;-6.298;2023-04-08T02:18:30;101904.31;;;7.79;77.98
61488;BME280;47351;53.326;-6.298;2023-04-08T02:21:37;101903.04;;;7.77;77.45
61488;BME280;47351;53.326;-6.298;2023-04-08T02:24:46;101904.08;;;7.73;77.04
61488;BME280;47351;53.326;-6.298;2023-04-08T02:27:57;101905.92;;;7.67;76.92
61488;BME280;47351;53.326;-6.298;2023-04-08T02:31:10;101906.56;;;7.60;76.82
61488;BME280;47351;53.326;-6.298;2023-04-08T02:34:16;101900.42;;;7.54;76.82
61488;BME280;47351;53.326;-6.298;2023-04-08T02:37:20;101898.86;;;7.49;76.77
61488;BME280;47351;53.326;-6.298;2023-04-08T02:40:32;101900.87;;;7.43;76.93
61488;BME280;47351;53.326;-6.298;2023-04-08T02:43:43;101895.88;;;7.38;77.25
61488;BME280;47351;53.326;-6.298;2023-04-08T02:46:47;101896.85;;;7.37;77.46
61488;BME280;47351;53.326;-6.298;2023-04-08T02:49:58;101899.77;;;7.36;77.61
61488;BME280;47351;53.326;-6.298;2023-04-08T02:52:59;101896.86;;;7.36;78.01
61488;BME280;47351;53.326;-6.298;2023-04-08T02:56:10;101890.73;;;7.40;78.63
61488;BME280;47351;53.326;-6.298;2023-04-08T02:59:22;101885.59;;;7.46;78.97
61488;BME280;47351;53.326;-6.298;2023-04-08T03:02:33;101891.27;;;7.51;79.20
61488;BME280;47351;53.326;-6.298;2023-04-08T03:05:44;101889.66;;;7.56;79.33
61488;BME280;47351;53.326;-6.298;2023-04-08T03:08:55;101891.10;;;7.60;79.20
61488;BME280;47351;53.326;-6.298;2023-04-08T03:11:55;101891.05;;;7.66;79.24
61488;BME280;47351;53.326;-6.298;2023-04-08T03:15:06;101891.68;;;7.70;79.10
61488;BME280;47351;53.326;-6.298;2023-04-08T03:18:10;101895.38;;;7.72;78.94
61488;BME280;47351;53.326;-6.298;2023-04-08T03:21:22;101891.30;;;7.72;78.74
61488;BME280;47351;53.326;-6.298;2023-04-08T03:24:33;101889.69;;;7.70;78.60
61488;BME280;47351;53.326;-6.298;2023-04-08T03:27:44;101884.23;;;7.67;78.31
61488;BME280;47351;53.326;-6.298;2023-04-08T03:30:55;101885.66;;;7.64;77.93
61488;BME280;47351;53.326;-6.298;2023-04-08T03:34:06;101889.58;;;7.62;77.67
61488;BME280;47351;53.326;-6.298;2023-04-08T03:37:17;101892.20;;;7.58;77.43
61488;BME280;47351;53.326;-6.298;2023-04-08T03:40:20;101890.58;;;7.53;77.23
61488;BME280;47351;53.326;-6.298;2023-04-08T03:43:31;101887.18;;;7.48;77.07
61488;BME280;47351;53.326;-6.298;2023-04-08T03:46:44;101882.92;;;7.43;76.93
61488;BME280;47351;53.326;-6.298;2023-04-08T03:49:48;101884.45;;;7.39;76.86
61488;BME280;47351;53.326;-6.298;2023-04-08T03:53:02;101883.84;;;7.35;76.77
61488;BME280;47351;53.326;-6.298;2023-04-08T04:00:10;101879.27;;;7.22;76.79
61488;BME280;47351;53.326;-6.298;2023-04-08T04:03:00;101874.30;;;7.17;76.86
61488;BME280;47351;53.326;-6.298;2023-04-08T04:06:11;101876.13;;;7.13;76.97
61488;BME280;47351;53.326;-6.298;2023-04-08T04:09:22;101874.95;;;7.10;77.07
61488;BME280;47351;53.326;-6.298;2023-04-08T04:12:24;101876.45;;;7.06;77.08
61488;BME280;47351;53.326;-6.298;2023-04-08T04:15:18;101879.73;;;7.03;77.12
61488;BME280;47351;53.326;-6.298;2023-04-08T04:18:33;101880.98;;;7.02;77.39
61488;BME280;47351;53.326;-6.298;2023-04-08T04:21:48;101878.96;;;7.03;77.56
61488;BME280;47351;53.326;-6.298;2023-04-08T04:25:00;101881.89;;;7.07;77.86
61488;BME280;47351;53.326;-6.298;2023-04-08T04:28:10;101879.80;;;7.09;77.91
61488;BME280;47351;53.326;-6.298;2023-04-08T04:31:21;101881.81;;;7.11;78.03
61488;BME280;47351;53.326;-6.298;2023-04-08T04:34:33;101878.75;;;7.14;78.30
61488;BME280;47351;53.326;-6.298;2023-04-08T04:37:44;101880.09;;;7.17;78.52
61488;BME280;47351;53.326;-6.298;2023-04-08T04:40:55;101879.88;;;7.21;78.72
61488;BME280;47351;53.326;-6.298;2023-04-08T04:44:07;101874.87;;;7.26;79.07
61488;BME280;47351;53.326;-6.298;2023-04-08T04:47:18;101877.89;;;7.31;79.33
61488;BME280;47351;53.326;-6.298;2023-04-08T04:50:29;101877.27;;;7.32;79.33
61488;BME280;47351;53.326;-6.298;2023-04-08T04:53:40;101874.80;;;7.32;79.41
61488;BME280;47351;53.326;-6.298;2023-04-08T04:56:44;101876.30;;;7.31;79.51
61488;BME280;47351;53.326;-6.298;2023-04-08T04:59:55;101880.06;;;7.28;79.60
61488;BME280;47351;53.326;-6.298;2023-04-08T05:03:06;101886.10;;;7.26;79.76
61488;BME280;47351;53.326;-6.298;2023-04-08T05:06:09;101895.17;;;7.23;80.08
61488;BME280;47351;53.326;-6.298;2023-04-08T05:09:19;101894.50;;;7.20;80.31
61488;BME280;47351;53.326;-6.298;2023-04-08T05:12:30;101890.09;;;7.16;80.49
61488;BME280;47351;53.326;-6.298;2023-04-08T05:15:41;101886.98;;;7.13;80.61
61488;BME280;47351;53.326;-6.298;2023-04-08T05:18:38;101887.13;;;7.08;80.82
61488;BME280;47351;53.326;-6.298;2023-04-08T05:21:49;101890.61;;;7.04;81.09
61488;BME280;47351;53.326;-6.298;2023-04-08T05:25:00;101894.44;;;7.00;81.36
61488;BME280;47351;53.326;-6.298;2023-04-08T05:28:11;101898.79;;;6.96;81.50
61488;BME280;47351;53.326;-6.298;2023-04-08T05:31:16;101895.48;;;6.92;81.70
61488;BME280;47351;53.326;-6.298;2023-04-08T05:34:19;101896.06;;;6.89;81.94
61488;BME280;47351;53.326;-6.298;2023-04-08T05:37:25;101898.33;;;6.85;82.02
61488;BME280;47351;53.326;-6.298;2023-04-08T05:40:37;101898.70;;;6.82;82.20
61488;BME280;47351;53.326;-6.298;2023-04-08T05:43:50;101897.11;;;6.79;82.39
61488;BME280;47351;53.326;-6.298;2023-04-08T05:47:01;101899.22;;;6.77;82.54
61488;BME280;47351;53.326;-6.298;2023-04-08T05:50:04;101898.88;;;6.74;82.54
61488;BME280;47351;53.326;-6.298;2023-04-08T05:53:15;101905.24;;;6.72;82.73
61488;BME280;47351;53.326;-6.298;2023-04-08T05:56:26;101911.39;;;6.70;82.83
61488;BME280;47351;53.326;-6.298;2023-04-08T05:59:37;101914.48;;;6.69;82.90
61488;BME280;47351;53.326;-6.298;2023-04-08T06:02:48;101920.16;;;6.71;83.03
61488;BME280;47351;53.326;-6.298;2023-04-08T06:05:58;101922.17;;;6.76;83.29
61488;BME280;47351;53.326;-6.298;2023-04-08T06:09:09;101923.58;;;6.84;83.63
61488;BME280;47351;53.326;-6.298;2023-04-08T06:12:20;101925.77;;;6.93;84.06
61488;BME280;47351;53.326;-6.298;2023-04-08T06:15:31;101925.61;;;7.04;84.14
61488;BME280;47351;53.326;-6.298;2023-04-08T06:18:44;101924.80;;;7.15;84.18
61488;BME280;47351;53.326;-6.298;2023-04-08T06:21:55;101921.58;;;7.29;84.03
61488;BME280;47351;53.326;-6.298;2023-04-08T06:25:07;101922.44;;;7.39;83.61
61488;BME280;47351;53.326;-6.298;2023-04-08T06:28:18;101926.95;;;7.51;83.63
61488;BME280;47351;53.326;-6.298;2023-04-08T06:31:29;101925.59;;;7.62;83.40
61488;BME280;47351;53.326;-6.298;2023-04-08T06:34:42;101927.29;;;7.71;82.94
61488;BME280;47351;53.326;-6.298;2023-04-08T06:37:54;101926.63;;;7.78;82.55
61488;BME280;47351;53.326;-6.298;2023-04-08T06:41:05;101934.66;;;7.85;82.21
61488;BME280;47351;53.326;-6.298;2023-04-08T06:44:17;101936.98;;;7.89;81.96
61488;BME280;47351;53.326;-6.298;2023-04-08T06:47:27;101937.48;;;7.93;81.69
61488;BME280;47351;53.326;-6.298;2023-04-08T06:50:29;101945.08;;;7.93;81.45
61488;BME280;47351;53.326;-6.298;2023-04-08T06:53:35;101947.23;;;7.95;81.50
61488;BME280;47351;53.326;-6.298;2023-04-08T06:56:47;101943.71;;;7.97;81.45
61488;BME280;47351;53.326;-6.298;2023-04-08T06:59:59;101947.70;;;7.99;81.23
61488;BME280;47351;53.326;-6.298;2023-04-08T07:03:03;101949.61;;;7.99;80.94
61488;BME280;47351;53.326;-6.298;2023-04-08T07:06:15;101948.00;;;8.02;80.86
61488;BME280;47351;53.326;-6.298;2023-04-08T07:09:25;101952.70;;;8.06;80.71
61488;BME280;47351;53.326;-6.298;2023-04-08T07:12:37;101952.27;;;8.14;80.60
61488;BME280;47351;53.326;-6.298;2023-04-08T07:15:48;101955.95;;;8.29;80.18
61488;BME280;47351;53.326;-6.298;2023-04-08T07:18:59;101956.48;;;8.44;79.91
61488;BME280;47351;53.326;-6.298;2023-04-08T07:22:09;101953.03;;;8.67;79.69
61488;BME280;47351;53.326;-6.298;2023-04-08T07:25:11;101950.96;;;9.10;79.57
61488;BME280;47351;53.326;-6.298;2023-04-08T07:28:22;101954.98;;;9.77;79.07
61488;BME280;47351;53.326;-6.298;2023-04-08T07:31:34;101956.45;;;10.47;78.14
61488;BME280;47351;53.326;-6.298;2023-04-08T07:34:28;101954.61;;;10.69;76.57
61488;BME280;47351;53.326;-6.298;2023-04-08T07:37:18;101954.85;;;10.77;75.24
61488;BME280;47351;53.326;-6.298;2023-04-08T07:40:11;101951.77;;;10.78;74.67
61488;BME280;47351;53.326;-6.298;2023-04-08T07:43:11;101956.61;;;10.82;73.90
61488;BME280;47351;53.326;-6.298;2023-04-08T07:46:13;101962.52;;;10.99;73.21
61488;BME280;47351;53.326;-6.298;2023-04-08T07:49:07;101962.90;;;11.66;72.43
61488;BME280;47351;53.326;-6.298;2023-04-08T07:51:58;101966.27;;;12.67;70.26
61488;BME280;47351;53.326;-6.298;2023-04-08T07:54:51;101968.37;;;12.71;69.20
61488;BME280;47351;53.326;-6.298;2023-04-08T07:57:42;101975.18;;;12.62;68.34
61488;BME280;47351;53.326;-6.298;2023-04-08T08:00:43;101982.33;;;12.50;67.52
61488;BME280;47351;53.326;-6.298;2023-04-08T08:03:37;101981.65;;;12.57;67.22
61488;BME280;47351;53.326;-6.298;2023-04-08T08:06:28;101974.88;;;14.10;65.80
61488;BME280;47351;53.326;-6.298;2023-04-08T08:09:20;101968.89;;;15.71;63.57
61488;BME280;47351;53.326;-6.298;2023-04-08T08:12:10;101971.13;;;16.39;61.81
61488;BME280;47351;53.326;-6.298;2023-04-08T08:15:01;101974.70;;;16.43;60.43
61488;BME280;47351;53.326;-6.298;2023-04-08T08:17:52;101975.90;;;16.34;58.84
61488;BME280;47351;53.326;-6.298;2023-04-08T08:20:42;101972.73;;;15.99;57.72
61488;BME280;47351;53.326;-6.298;2023-04-08T08:23:33;101974.25;;;15.69;57.87
61488;BME280;47351;53.326;-6.298;2023-04-08T08:26:23;101981.02;;;15.39;57.93
61488;BME280;47351;53.326;-6.298;2023-04-08T08:29:14;101985.99;;;14.99;58.00
61488;BME280;47351;53.326;-6.298;2023-04-08T08:32:05;101988.45;;;14.62;57.79
61488;BME280;47351;53.326;-6.298;2023-04-08T08:35:00;101988.30;;;14.28;57.84
61488;BME280;47351;53.326;-6.298;2023-04-08T08:37:58;101990.14;;;14.38;58.04
61488;BME280;47351;53.326;-6.298;2023-04-08T08:40:54;101982.38;;;14.97;57.97
61488;BME280;47351;53.326;-6.298;2023-04-08T08:43:45;101973.63;;;16.47;55.56
61488;BME280;47351;53.326;-6.298;2023-04-08T08:46:37;101965.44;;;17.00;55.21
61488;BME280;47351;53.326;-6.298;2023-04-08T08:49:31;101962.13;;;18.31;53.04
61488;BME280;47351;53.326;-6.298;2023-04-08T08:52:22;101954.88;;;19.98;50.53
61488;BME280;47351;53.326;-6.298;2023-04-08T08:55:12;101948.56;;;21.56;48.08
61488;BME280;47351;53.326;-6.298;2023-04-08T08:58:23;101943.25;;;22.61;43.43
61488;BME280;47351;53.326;-6.298;2023-04-08T09:01:32;101935.26;;;23.39;42.56
61488;BME280;47351;53.326;-6.298;2023-04-08T09:04:23;101937.35;;;24.46;41.47
61488;BME280;47351;53.326;-6.298;2023-04-08T09:07:14;101940.02;;;25.58;40.63
61488;BME280;47351;53.326;-6.298;2023-04-08T09:10:06;101937.02;;;26.51;38.66
61488;BME280;47351;53.326;-6.298;2023-04-08T09:12:58;101938.58;;;27.18;35.83
61488;BME280;47351;53.326;-6.298;2023-04-08T09:16:01;101928.26;;;27.63;34.05
61488;BME280;47351;53.326;-6.298;2023-04-08T09:18:53;101928.77;;;28.15;33.81
61488;BME280;47351;53.326;-6.298;2023-04-08T09:21:43;101923.61;;;28.48;32.56
61488;BME280;47351;53.326;-6.298;2023-04-08T09:24:35;101920.08;;;28.73;31.64
61488;BME280;47351;53.326;-6.298;2023-04-08T09:27:33;101922.37;;;28.71;31.58
61488;BME280;47351;53.326;-6.298;2023-04-08T09:30:25;101931.92;;;27.63;31.63
61488;BME280;47351;53.326;-6.298;2023-04-08T09:33:16;101937.81;;;26.22;32.52
61488;BME280;47351;53.326;-6.298;2023-04-08T09:36:07;101937.98;;;25.07;32.90
61488;BME280;47351;53.326;-6.298;2023-04-08T09:38:58;101936.11;;;23.97;33.11
61488;BME280;47351;53.326;-6.298;2023-04-08T09:41:48;101937.87;;;22.64;34.04
61488;BME280;47351;53.326;-6.298;2023-04-08T09:44:40;101935.98;;;21.39;35.22
61488;BME280;47351;53.326;-6.298;2023-04-08T09:47:31;101936.22;;;20.40;36.25
61488;BME280;47351;53.326;-6.298;2023-04-08T09:50:28;101938.70;;;19.52;37.21
61488;BME280;47351;53.326;-6.298;2023-04-08T09:53:24;101947.83;;;18.79;37.98
61488;BME280;47351;53.326;-6.298;2023-04-08T09:56:16;101949.98;;;18.21;38.91
61488;BME280;47351;53.326;-6.298;2023-04-08T09:59:13;101951.85;;;17.86;39.48
61488;BME280;47351;53.326;-6.298;2023-04-08T10:02:06;101947.03;;;17.79;40.08
61488;BME280;47351;53.326;-6.298;2023-04-08T10:04:58;101943.70;;;17.67;40.20
61488;BME280;47351;53.326;-6.298;2023-04-08T10:07:54;101947.00;;;17.38;40.67
61488;BME280;47351;53.326;-6.298;2023-04-08T10:10:45;101946.77;;;17.32;40.89
61488;BME280;47351;53.326;-6.298;2023-04-08T10:13:36;101937.34;;;19.66;39.10
61488;BME280;47351;53.326;-6.298;2023-04-08T10:16:26;101928.38;;;22.77;35.53
61488;BME280;47351;53.326;-6.298;2023-04-08T10:25:33;101936.88;;;22.18;34.03
61488;BME280;47351;53.326;-6.298;2023-04-08T10:28:24;101939.77;;;22.52;33.87
61488;BME280;47351;53.326;-6.298;2023-04-08T10:31:14;101930.10;;;23.96;32.65
61488;BME280;47351;53.326;-6.298;2023-04-08T10:34:18;101920.30;;;25.84;30.40
61488;BME280;47351;53.326;-6.298;2023-04-08T10:37:09;101914.45;;;27.60;29.20
61488;BME280;47351;53.326;-6.298;2023-04-08T10:39:59;101913.28;;;28.90;28.12
61488;BME280;47351;53.326;-6.298;2023-04-08T10:42:54;101906.85;;;28.67;27.36
61488;BME280;47351;53.326;-6.298;2023-04-08T10:45:45;101906.25;;;28.81;27.22
61488;BME280;47351;53.326;-6.298;2023-04-08T10:48:39;101905.18;;;30.06;26.52
61488;BME280;47351;53.326;-6.298;2023-04-08T10:51:30;101899.64;;;31.06;25.43
61488;BME280;47351;53.326;-6.298;2023-04-08T10:54:23;101898.82;;;31.77;24.43
61488;BME280;47351;53.326;-6.298;2023-04-08T10:57:13;101892.55;;;32.05;23.50
61488;BME280;47351;53.326;-6.298;2023-04-08T11:00:05;101897.75;;;31.87;23.48
61488;BME280;47351;53.326;-6.298;2023-04-08T11:02:55;101894.65;;;31.73;23.28
61488;BME280;47351;53.326;-6.298;2023-04-08T11:05:49;101898.63;;;31.71;22.60
61488;BME280;47351;53.326;-6.298;2023-04-08T11:08:40;101895.48;;;30.99;22.00
61488;BME280;47351;53.326;-6.298;2023-04-08T11:11:32;101892.87;;;30.64;22.74
61488;BME280;47351;53.326;-6.298;2023-04-08T11:14:23;101888.45;;;31.10;22.78
61488;BME280;47351;53.326;-6.298;2023-04-08T11:17:14;101888.98;;;31.59;22.05
61488;BME280;47351;53.326;-6.298;2023-04-08T11:20:06;101890.02;;;31.90;22.22
61488;BME280;47351;53.326;-6.298;2023-04-08T11:22:57;101887.64;;;32.20;22.01
61488;BME280;47351;53.326;-6.298;2023-04-08T11:25:47;101886.45;;;32.49;21.97
61488;BME280;47351;53.326;-6.298;2023-04-08T11:28:38;101884.20;;;33.01;22.15
61488;BME280;47351;53.326;-6.298;2023-04-08T11:31:29;101885.52;;;33.52;20.83
61488;BME280;47351;53.326;-6.298;2023-04-08T11:34:22;101886.74;;;33.65;19.63
61488;BME280;47351;53.326;-6.298;2023-04-08T11:37:13;101886.73;;;33.66;19.40
61488;BME280;47351;53.326;-6.298;2023-04-08T11:40:06;101884.08;;;33.76;19.49
61488;BME280;47351;53.326;-6.298;2023-04-08T11:42:57;101874.82;;;33.81;19.87
61488;BME280;47351;53.326;-6.298;2023-04-08T11:45:47;101880.81;;;34.03;19.84
61488;BME280;47351;53.326;-6.298;2023-04-08T11:48:38;101876.25;;;34.16;19.15
61488;BME280;47351;53.326;-6.298;2023-04-08T11:51:29;101878.35;;;33.20;19.67
61488;BME280;47351;53.326;-6.298;2023-04-08T11:54:26;101881.30;;;32.53;20.39
61488;BME280;47351;53.326;-6.298;2023-04-08T11:57:16;101879.48;;;32.48;20.26
61488;BME280;47351;53.326;-6.298;2023-04-08T12:00:17;101872.99;;;32.53;20.47
61488;BME280;47351;53.326;-6.298;2023-04-08T12:03:09;101868.58;;;32.81;20.60
61488;BME280;47351;53.326;-6.298;2023-04-08T12:05:59;101868.35;;;32.97;20.71
61488;BME280;47351;53.326;-6.298;2023-04-08T12:08:50;101869.34;;;32.96;20.32
61488;BME280;47351;53.326;-6.298;2023-04-08T12:11:40;101871.89;;;32.99;19.93
61488;BME280;47351;53.326;-6.298;2023-04-08T12:14:31;101872.85;;;33.32;19.98
61488;BME280;47351;53.326;-6.298;2023-04-08T12:17:21;101868.10;;;33.96;19.19
61488;BME280;47351;53.326;-6.298;2023-04-08T12:20:12;101878.08;;;34.41;19.02
61488;BME280;47351;53.326;-6.298;2023-04-08T12:23:04;101875.96;;;34.64;19.22
61488;BME280;47351;53.326;-6.298;2023-04-08T12:25:56;101873.85;;;34.99;18.91
61488;BME280;47351;53.326;-6.298;2023-04-08T12:28:47;101877.50;;;34.99;18.88
61488;BME280;47351;53.326;-6.298;2023-04-08T12:31:37;101883.98;;;34.82;18.90
61488;BME280;47351;53.326;-6.298;2023-04-08T12:34:28;101884.45;;;34.32;19.06
61488;BME280;47351;53.326;-6.298;2023-04-08T12:37:19;101878.86;;;33.33;19.89
61488;BME280;47351;53.326;-6.298;2023-04-08T12:40:10;101886.33;;;31.61;21.07
61488;BME280;47351;53.326;-6.298;2023-04-08T12:43:00;101887.35;;;30.22;22.42
61488;BME280;47351;53.326;-6.298;2023-04-08T12:45:51;101886.88;;;29.22;23.28
61488;BME280;47351;53.326;-6.298;2023-04-08T12:48:41;101891.33;;;28.06;24.58
61488;BME280;47351;53.326;-6.298;2023-04-08T12:51:33;101890.84;;;26.74;26.09
61488;BME280;47351;53.326;-6.298;2023-04-08T12:54:23;101886.14;;;25.66;27.32
61488;BME280;47351;53.326;-6.298;2023-04-08T12:57:14;101885.96;;;24.71;28.23
61488;BME280;47351;53.326;-6.298;2023-04-08T13:00:06;101886.39;;;23.91;29.37
61488;BME280;47351;53.326;-6.298;2023-04-08T13:02:57;101884.89;;;23.39;30.39
61488;BME280;47351;53.326;-6.298;2023-04-08T13:05:48;101885.30;;;22.93;30.89
61488;BME280;47351;53.326;-6.298;2023-04-08T13:08:38;101883.54;;;22.35;31.78
61488;BME280;47351;53.326;-6.298;2023-04-08T13:11:29;101886.32;;;21.65;32.86
61488;BME280;47351;53.326;-6.298;2023-04-08T13:14:22;101884.23;;;21.10;33.79
61488;BME280;47351;53.326;-6.298;2023-04-08T13:17:12;101884.30;;;20.73;34.71
61488;BME280;47351;53.326;-6.298;2023-04-08T13:20:03;101892.05;;;20.64;35.60
61488;BME280;47351;53.326;-6.298;2023-04-08T13:22:54;101887.14;;;20.55;36.28
61488;BME280;47351;53.326;-6.298;2023-04-08T13:25:44;101882.85;;;20.45;36.74
61488;BME280;47351;53.326;-6.298;2023-04-08T13:28:35;101884.20;;;20.26;37.05
61488;BME280;47351;53.326;-6.298;2023-04-08T13:31:44;101888.89;;;19.79;37.77
61488;BME280;47351;53.326;-6.298;2023-04-08T13:34:35;101895.66;;;19.39;38.59
61488;BME280;47351;53.326;-6.298;2023-04-08T13:37:27;101897.23;;;19.05;39.42
61488;BME280;47351;53.326;-6.298;2023-04-08T13:40:19;101897.54;;;18.75;40.13
61488;BME280;47351;53.326;-6.298;2023-04-08T13:43:10;101901.04;;;18.47;40.33
61488;BME280;47351;53.326;-6.298;2023-04-08T13:46:00;101898.71;;;18.37;40.69
61488;BME280;47351;53.326;-6.298;2023-04-08T13:48:51;101892.19;;;18.77;40.48
61488;BME280;47351;53.326;-6.298;2023-04-08T13:51:42;101892.35;;;19.92;39.22
61488;BME280;47351;53.326;-6.298;2023-04-08T13:54:33;101883.61;;;21.12;37.06
61488;BME280;47351;53.326;-6.298;2023-04-08T13:57:23;101880.16;;;22.31;35.87
61488;BME280;47351;53.326;-6.298;2023-04-08T14:00:14;101870.48;;;23.16;34.82
61488;BME280;47351;53.326;-6.298;2023-04-08T14:03:05;101867.86;;;23.64;33.98
61488;BME280;47351;53.326;-6.298;2023-04-08T14:05:55;101871.55;;;23.17;34.24
61488;BME280;47351;53.326;-6.298;2023-04-08T14:08:49;101871.36;;;22.87;34.23
61488;BME280;47351;53.326;-6.298;2023-04-08T14:11:40;101875.22;;;22.44;34.16
61488;BME280;47351;53.326;-6.298;2023-04-08T14:14:30;101878.83;;;21.74;35.34
61488;BME280;47351;53.326;-6.298;2023-04-08T14:17:21;101876.31;;;21.03;35.91
61488;BME280;47351;53.326;-6.298;2023-04-08T14:20:12;101876.16;;;20.29;36.72
61488;BME280;47351;53.326;-6.298;2023-04-08T14:23:03;101873.75;;;19.78;37.78
61488;BME280;47351;53.326;-6.298;2023-04-08T14:25:53;101873.45;;;19.32;38.57
61488;BME280;47351;53.326;-6.298;2023-04-08T14:28:44;101878.04;;;18.87;39.31
61488;BME280;47351;53.326;-6.298;2023-04-08T14:31:35;101881.94;;;18.49;39.92
61488;BME280;47351;53.326;-6.298;2023-04-08T14:34:25;101884.31;;;18.22;40.71
61488;BME280;47351;53.326;-6.298;2023-04-08T14:37:16;101886.26;;;18.10;41.30
61488;BME280;47351;53.326;-6.298;2023-04-08T14:40:08;101883.48;;;17.93;41.47
61488;BME280;47351;53.326;-6.298;2023-04-08T14:42:58;101885.00;;;17.77;41.76
61488;BME280;47351;53.326;-6.298;2023-04-08T14:45:49;101886.15;;;17.59;42.14
61488;BME280;47351;53.326;-6.298;2023-04-08T14:48:40;101891.23;;;17.43;42.63
61488;BME280;47351;53.326;-6.298;2023-04-08T14:51:31;101886.31;;;17.28;43.00
61488;BME280;47351;53.326;-6.298;2023-04-08T14:54:21;101884.13;;;17.15;43.35
61488;BME280;47351;53.326;-6.298;2023-04-08T14:57:12;101879.80;;;17.00;43.74
61488;BME280;47351;53.326;-6.298;2023-04-08T15:00:02;101882.80;;;16.86;43.96
61488;BME280;47351;53.326;-6.298;2023-04-08T15:02:53;101882.45;;;16.78;44.32
61488;BME280;47351;53.326;-6.298;2023-04-08T15:05:44;101883.21;;;16.67;44.43
61488;BME280;47351;53.326;-6.298;2023-04-08T15:08:34;101880.95;;;16.59;44.90
61488;BME280;47351;53.326;-6.298;2023-04-08T15:11:25;101879.80;;;16.54;45.39
61488;BME280;47351;53.326;-6.298;2023-04-08T15:14:15;101875.84;;;16.48;45.43
61488;BME280;47351;53.326;-6.298;2023-04-08T15:17:06;101876.75;;;16.41;45.74
61488;BME280;47351;53.326;-6.298;2023-04-08T15:19:58;101875.23;;;16.38;45.97
61488;BME280;47351;53.326;-6.298;2023-04-08T15:22:49;101877.29;;;16.31;46.24
61488;BME280;47351;53.326;-6.298;2023-04-08T15:25:39;101880.69;;;16.20;46.32
61488;BME280;47351;53.326;-6.298;2023-04-08T15:28:30;101879.86;;;16.11;46.51
61488;BME280;47351;53.326;-6.298;2023-04-08T15:31:21;101880.51;;;16.00;46.72
61488;BME280;47351;53.326;-6.298;2023-04-08T15:34:11;101881.56;;;15.90;46.99
61488;BME280;47351;53.326;-6.298;2023-04-08T15:37:02;101879.86;;;15.87;47.23
61488;BME280;47351;53.326;-6.298;2023-04-08T15:39:53;101876.75;;;15.84;47.60
61488;BME280;47351;53.326;-6.298;2023-04-08T15:42:43;101880.67;;;15.83;47.93